Terminal Aerodrome Forecast
Issued by NWS

Home | Current Version | Previous Version | Text Only | Print | Product List | Glossary On
Versions: 1 2 3 4 5 6 7 8 9 10 11 12 13 14 15 16 17 18 19 20 21 22 23 24 25
000
FTUS41 KCLE 161000 AAC
TAFFDY
TAF AMD
KFDY 161042Z 1611/1706 36007KT 6SM BR OVC015
     FM161130 36007KT P6SM SCT015
      TEMPO 1612/1613 5SM BR BKN015
     FM161500 34005KT P6SM BKN035
     FM161600 34006KT P6SM SCT025 BKN045
     FM161700 33006KT P6SM SCT045
     FM170200 26003KT P6SM SKC=

USA.gov is the U.S. government's official web portal to all federal, state and local government web resources and services.